sensor_id;sensor_type;location;lat;lon;timestamp;pressure;altitude;pressure_sealevel;temperature;humidity
2785;BME280;57944;48.722;9.316;2023-03-20T00:01:11;98298.16;;;9.12;100.00
2785;BME280;57944;48.722;9.316;2023-03-20T00:03:42;98301.56;;;9.19;100.00
2785;BME280;57944;48.722;9.316;2023-03-20T00:06:14;98296.16;;;9.37;100.00
2785;BME280;57944;48.722;9.316;2023-03-20T00:08:46;98296.06;;;9.45;100.00
2785;BME280;57944;48.722;9.316;2023-03-20T00:11:26;98297.38;;;9.26;100.00
2785;BME280;57944;48.722;9.316;2023-03-20T00:14:01;98295.72;;;9.18;100.00
2785;BME280;57944;48.722;9.316;2023-03-20T00:16:34;98300.59;;;9.05;100.00
2785;BME280;57944;48.722;9.316;2023-03-20T00:19:06;98308.84;;;9.07;100.00
2785;BME280;57944;48.722;9.316;2023-03-20T00:21:39;98305.00;;;9.11;100.00
2785;BME280;57944;48.722;9.316;2023-03-20T00:24:09;98308.50;;;9.10;100.00
2785;BME280;57944;48.722;9.316;2023-03-20T00:26:43;98299.47;;;9.08;100.00
2785;BME280;57944;48.722;9.316;2023-03-20T00:29:18;98303.84;;;8.99;100.00
2785;BME280;57944;48.722;9.316;2023-03-20T00:31:50;98300.78;;;8.89;100.00
2785;BME280;57944;48.722;9.316;2023-03-20T00:34:22;98301.00;;;8.79;100.00
2785;BME280;57944;48.722;9.316;2023-03-20T00:36:53;98297.69;;;8.79;100.00
2785;BME280;57944;48.722;9.316;2023-03-20T00:39:24;98301.34;;;8.76;100.00
2785;BME280;57944;48.722;9.316;2023-03-20T00:41:59;98300.72;;;8.74;100.00
2785;BME280;57944;48.722;9.316;2023-03-20T00:44:33;98303.09;;;8.76;100.00
2785;BME280;57944;48.722;9.316;2023-03-20T00:47:11;98305.66;;;8.76;100.00
2785;BME280;57944;48.722;9.316;2023-03-20T00:49:41;98301.78;;;8.80;100.00
2785;BME280;57944;48.722;9.316;2023-03-20T00:52:13;98306.53;;;8.83;100.00
2785;BME280;57944;48.722;9.316;2023-03-20T00:54:44;98305.75;;;8.82;100.00
2785;BME280;57944;48.722;9.316;2023-03-20T00:57:20;98313.56;;;8.81;100.00
2785;BME280;57944;48.722;9.316;2023-03-20T00:59:54;98307.66;;;8.80;100.00
2785;BME280;57944;48.722;9.316;2023-03-20T01:02:28;98309.75;;;8.77;100.00
2785;BME280;57944;48.722;9.316;2023-03-20T01:04:59;98309.66;;;8.70;100.00
2785;BME280;57944;48.722;9.316;2023-03-20T01:07:29;98302.97;;;8.54;100.00
2785;BME280;57944;48.722;9.316;2023-03-20T01:10:02;98303.75;;;8.55;100.00
2785;BME280;57944;48.722;9.316;2023-03-20T01:12:37;98316.97;;;8.50;100.00
2785;BME280;57944;48.722;9.316;2023-03-20T01:15:17;98313.38;;;8.44;100.00
2785;BME280;57944;48.722;9.316;2023-03-20T01:17:48;98312.53;;;8.44;100.00
2785;BME280;57944;48.722;9.316;2023-03-20T01:20:22;98310.91;;;8.51;100.00
2785;BME280;57944;48.722;9.316;2023-03-20T01:22:53;98315.22;;;8.50;100.00
2785;BME280;57944;48.722;9.316;2023-03-20T01:25:24;98314.47;;;8.65;100.00
2785;BME280;57944;48.722;9.316;2023-03-20T01:27:56;98312.16;;;8.55;100.00
2785;BME280;57944;48.722;9.316;2023-03-20T01:30:30;98310.91;;;8.51;100.00
2785;BME280;57944;48.722;9.316;2023-03-20T01:33:04;98315.03;;;8.52;100.00
2785;BME280;57944;48.722;9.316;2023-03-20T01:35:35;98317.75;;;8.50;100.00
2785;BME280;57944;48.722;9.316;2023-03-20T01:38:10;98313.13;;;8.54;100.00
2785;BME280;57944;48.722;9.316;2023-03-20T01:40:50;98315.03;;;8.75;100.00
2785;BME280;57944;48.722;9.316;2023-03-20T01:43:26;98320.00;;;8.68;100.00
2785;BME280;57944;48.722;9.316;2023-03-20T01:46:00;98317.16;;;8.63;100.00
2785;BME280;57944;48.722;9.316;2023-03-20T01:49:04;98315.38;;;8.49;100.00
2785;BME280;57944;48.722;9.316;2023-03-20T01:51:36;98315.03;;;8.52;100.00
2785;BME280;57944;48.722;9.316;2023-03-20T01:54:13;98308.59;;;8.64;100.00
2785;BME280;57944;48.722;9.316;2023-03-20T01:56:53;98312.84;;;8.72;100.00
2785;BME280;57944;48.722;9.316;2023-03-20T01:59:31;98310.09;;;8.73;100.00
2785;BME280;57944;48.722;9.316;2023-03-20T02:02:04;98309.47;;;8.71;100.00
2785;BME280;57944;48.722;9.316;2023-03-20T02:04:38;98314.81;;;8.62;100.00
2785;BME280;57944;48.722;9.316;2023-03-20T02:07:15;98320.34;;;8.42;100.00
2785;BME280;57944;48.722;9.316;2023-03-20T02:10:07;98319.41;;;8.35;100.00
2785;BME280;57944;48.722;9.316;2023-03-20T02:12:46;98324.19;;;8.30;100.00
2785;BME280;57944;48.722;9.316;2023-03-20T02:15:29;98330.09;;;8.31;100.00
2785;BME280;57944;48.722;9.316;2023-03-20T02:18:09;98325.25;;;8.36;100.00
2785;BME280;57944;48.722;9.316;2023-03-20T02:20:50;98325.91;;;8.38;100.00
2785;BME280;57944;48.722;9.316;2023-03-20T02:23:46;98327.00;;;8.43;100.00
2785;BME280;57944;48.722;9.316;2023-03-20T02:26:40;98337.94;;;8.44;100.00
2785;BME280;57944;48.722;9.316;2023-03-20T02:36:01;98343.22;;;8.34;100.00
2785;BME280;57944;48.722;9.316;2023-03-20T02:38:48;98350.06;;;8.34;100.00
2785;BME280;57944;48.722;9.316;2023-03-20T02:41:28;98348.13;;;8.36;100.00
2785;BME280;57944;48.722;9.316;2023-03-20T02:44:04;98354.16;;;8.35;100.00
2785;BME280;57944;48.722;9.316;2023-03-20T02:46:44;98348.44;;;8.41;100.00
2785;BME280;57944;48.722;9.316;2023-03-20T02:49:36;98354.44;;;8.48;100.00
2785;BME280;57944;48.722;9.316;2023-03-20T02:52:17;98345.47;;;8.60;100.00
2785;BME280;57944;48.722;9.316;2023-03-20T02:54:57;98343.88;;;8.82;100.00
2785;BME280;57944;48.722;9.316;2023-03-20T02:57:40;98347.53;;;8.80;100.00
2785;BME280;57944;48.722;9.316;2023-03-20T03:00:19;98341.22;;;8.76;100.00
2785;BME280;57944;48.722;9.316;2023-03-20T03:02:57;98337.19;;;8.66;100.00
2785;BME280;57944;48.722;9.316;2023-03-20T03:05:35;98332.75;;;8.60;100.00
2785;BME280;57944;48.722;9.316;2023-03-20T03:08:07;98336.25;;;8.59;100.00
2785;BME280;57944;48.722;9.316;2023-03-20T03:10:44;98341.69;;;8.56;100.00
2785;BME280;57944;48.722;9.316;2023-03-20T03:13:19;98342.75;;;8.62;100.00
2785;BME280;57944;48.722;9.316;2023-03-20T03:15:54;98347.25;;;8.75;100.00
2785;BME280;57944;48.722;9.316;2023-03-20T03:18:29;98347.72;;;8.78;100.00
2785;BME280;57944;48.722;9.316;2023-03-20T03:21:03;98344.78;;;8.89;100.00
2785;BME280;57944;48.722;9.316;2023-03-20T03:23:39;98344.22;;;8.79;100.00
2785;BME280;57944;48.722;9.316;2023-03-20T03:26:17;98346.94;;;8.78;100.00
2785;BME280;57944;48.722;9.316;2023-03-20T03:28:55;98348.31;;;8.80;100.00
2785;BME280;57944;48.722;9.316;2023-03-20T03:31:26;98357.09;;;8.78;100.00
2785;BME280;57944;48.722;9.316;2023-03-20T03:33:58;98355.63;;;8.83;100.00
2785;BME280;57944;48.722;9.316;2023-03-20T03:36:36;98358.81;;;8.77;100.00
2785;BME280;57944;48.722;9.316;2023-03-20T03:39:13;98362.19;;;8.78;100.00
2785;BME280;57944;48.722;9.316;2023-03-20T03:41:52;98364.38;;;8.81;100.00
2785;BME280;57944;48.722;9.316;2023-03-20T03:44:29;98374.06;;;9.00;100.00
2785;BME280;57944;48.722;9.316;2023-03-20T03:47:04;98366.38;;;8.85;100.00
2785;BME280;57944;48.722;9.316;2023-03-20T03:49:41;98373.78;;;8.95;100.00
2785;BME280;57944;48.722;9.316;2023-03-20T03:52:15;98371.25;;;8.95;100.00
2785;BME280;57944;48.722;9.316;2023-03-20T03:54:48;98380.59;;;9.17;100.00
2785;BME280;57944;48.722;9.316;2023-03-20T03:57:45;98373.72;;;9.03;100.00
2785;BME280;57944;48.722;9.316;2023-03-20T04:00:22;98377.47;;;8.92;100.00
2785;BME280;57944;48.722;9.316;2023-03-20T04:02:56;98382.13;;;8.89;100.00
2785;BME280;57944;48.722;9.316;2023-03-20T04:05:29;98382.50;;;8.78;100.00
2785;BME280;57944;48.722;9.316;2023-03-20T04:08:03;98378.03;;;8.80;100.00
2785;BME280;57944;48.722;9.316;2023-03-20T04:10:33;98380.50;;;8.88;100.00
2785;BME280;57944;48.722;9.316;2023-03-20T04:13:09;98378.59;;;8.90;100.00
2785;BME280;57944;48.722;9.316;2023-03-20T04:15:42;98380.84;;;8.85;100.00
2785;BME280;57944;48.722;9.316;2023-03-20T04:18:14;98386.28;;;8.82;100.00
2785;BME280;57944;48.722;9.316;2023-03-20T04:20:46;98391.72;;;8.79;100.00
2785;BME280;57944;48.722;9.316;2023-03-20T04:23:17;98386.13;;;8.83;100.00
2785;BME280;57944;48.722;9.316;2023-03-20T04:25:48;98384.38;;;8.84;100.00
2785;BME280;57944;48.722;9.316;2023-03-20T04:28:21;98392.38;;;8.72;100.00
2785;BME280;57944;48.722;9.316;2023-03-20T04:31:10;98393.63;;;8.77;100.00
2785;BME280;57944;48.722;9.316;2023-03-20T04:34:06;98390.00;;;8.71;100.00
2785;BME280;57944;48.722;9.316;2023-03-20T04:36:55;98385.56;;;8.73;100.00
2785;BME280;57944;48.722;9.316;2023-03-20T04:39:38;98379.63;;;8.81;100.00
2785;BME280;57944;48.722;9.316;2023-03-20T04:42:10;98375.09;;;8.91;100.00
2785;BME280;57944;48.722;9.316;2023-03-20T04:44:42;98371.00;;;9.05;100.00
2785;BME280;57944;48.722;9.316;2023-03-20T04:47:12;98370.06;;;9.21;100.00
2785;BME280;57944;48.722;9.316;2023-03-20T04:49:43;98366.91;;;9.18;100.00
2785;BME280;57944;48.722;9.316;2023-03-20T04:52:13;98368.69;;;9.33;100.00
2785;BME280;57944;48.722;9.316;2023-03-20T04:54:44;98365.19;;;9.34;100.00
2785;BME280;57944;48.722;9.316;2023-03-20T04:57:14;98376.78;;;9.36;100.00
2785;BME280;57944;48.722;9.316;2023-03-20T04:59:48;98378.69;;;9.34;100.00
2785;BME280;57944;48.722;9.316;2023-03-20T05:02:18;98376.38;;;9.25;100.00
2785;BME280;57944;48.722;9.316;2023-03-20T05:04:48;98382.16;;;9.18;100.00
2785;BME280;57944;48.722;9.316;2023-03-20T05:07:19;98377.22;;;9.02;100.00
2785;BME280;57944;48.722;9.316;2023-03-20T05:10:00;98386.50;;;8.95;100.00
2785;BME280;57944;48.722;9.316;2023-03-20T05:12:34;98389.84;;;8.95;100.00
2785;BME280;57944;48.722;9.316;2023-03-20T05:15:14;98392.88;;;8.91;100.00
2785;BME280;57944;48.722;9.316;2023-03-20T05:18:07;98391.38;;;8.82;100.00
2785;BME280;57944;48.722;9.316;2023-03-20T05:20:40;98391.72;;;8.79;100.00
2785;BME280;57944;48.722;9.316;2023-03-20T05:23:28;98405.38;;;8.78;100.00
2785;BME280;57944;48.722;9.316;2023-03-20T05:26:33;98410.47;;;8.78;100.00
2785;BME280;57944;48.722;9.316;2023-03-20T05:29:17;98413.50;;;8.73;100.00
2785;BME280;57944;48.722;9.316;2023-03-20T05:32:16;98413.66;;;8.71;100.00
2785;BME280;57944;48.722;9.316;2023-03-20T05:35:19;98416.38;;;8.70;100.00
2785;BME280;57944;48.722;9.316;2023-03-20T05:37:57;98416.84;;;8.73;100.00
2785;BME280;57944;48.722;9.316;2023-03-20T05:40:36;98413.00;;;8.78;100.00
2785;BME280;57944;48.722;9.316;2023-03-20T05:43:20;98413.00;;;8.78;100.00
2785;BME280;57944;48.722;9.316;2023-03-20T05:46:01;98409.66;;;8.77;100.00
2785;BME280;57944;48.722;9.316;2023-03-20T05:48:52;98405.09;;;8.72;100.00
2785;BME280;57944;48.722;9.316;2023-03-20T05:51:49;98401.63;;;8.88;100.00
2785;BME280;57944;48.722;9.316;2023-03-20T05:54:29;98409.81;;;8.99;100.00
2785;BME280;57944;48.722;9.316;2023-03-20T05:57:19;98407.78;;;8.94;100.00
2785;BME280;57944;48.722;9.316;2023-03-20T06:00:05;98417.44;;;8.99;100.00
2785;BME280;57944;48.722;9.316;2023-03-20T06:02:39;98419.22;;;8.98;100.00
2785;BME280;57944;48.722;9.316;2023-03-20T06:05:37;98418.25;;;8.99;100.00
2785;BME280;57944;48.722;9.316;2023-03-20T06:08:08;98426.16;;;9.04;100.00
2785;BME280;57944;48.722;9.316;2023-03-20T06:10:38;98432.81;;;9.05;100.00
2785;BME280;57944;48.722;9.316;2023-03-20T06:13:09;98434.41;;;9.06;100.00
2785;BME280;57944;48.722;9.316;2023-03-20T06:15:39;98436.69;;;9.16;100.00
2785;BME280;57944;48.722;9.316;2023-03-20T06:18:14;98442.00;;;9.29;100.00
2785;BME280;57944;48.722;9.316;2023-03-20T06:20:51;98439.47;;;9.29;100.00
2785;BME280;57944;48.722;9.316;2023-03-20T06:23:21;98439.38;;;9.37;100.00
2785;BME280;57944;48.722;9.316;2023-03-20T06:25:52;98442.09;;;9.36;100.00
2785;BME280;57944;48.722;9.316;2023-03-20T06:28:24;98447.47;;;9.41;100.00
2785;BME280;57944;48.722;9.316;2023-03-20T06:31:01;98450.28;;;9.46;100.00
2785;BME280;57944;48.722;9.316;2023-03-20T06:33:32;98450.47;;;9.59;100.00
2785;BME280;57944;48.722;9.316;2023-03-20T06:36:07;98448.28;;;9.71;100.00
2785;BME280;57944;48.722;9.316;2023-03-20T06:38:38;98451.28;;;9.75;100.00
2785;BME280;57944;48.722;9.316;2023-03-20T06:41:13;98448.91;;;9.88;100.00
2785;BME280;57944;48.722;9.316;2023-03-20T06:44:02;98444.78;;;10.02;100.00
2785;BME280;57944;48.722;9.316;2023-03-20T06:46:52;98436.78;;;10.05;100.00
2785;BME280;57944;48.722;9.316;2023-03-20T06:49:24;98436.19;;;10.18;100.00
2785;BME280;57944;48.722;9.316;2023-03-20T06:51:57;98429.88;;;10.28;100.00
2785;BME280;57944;48.722;9.316;2023-03-20T06:54:29;98434.69;;;10.38;100.00
2785;BME280;57944;48.722;9.316;2023-03-20T06:56:59;98435.28;;;10.40;100.00
2785;BME280;57944;48.722;9.316;2023-03-20T06:59:29;98438.34;;;10.50;100.00
2785;BME280;57944;48.722;9.316;2023-03-20T07:02:00;98434.09;;;10.58;100.00
2785;BME280;57944;48.722;9.316;2023-03-20T07:04:31;98440.78;;;10.59;100.00
2785;BME280;57944;48.722;9.316;2023-03-20T07:07:04;98444.72;;;10.61;100.00
2785;BME280;57944;48.722;9.316;2023-03-20T07:09:34;98444.06;;;10.74;100.00
2785;BME280;57944;48.722;9.316;2023-03-20T07:12:09;98455.84;;;11.18;100.00
2785;BME280;57944;48.722;9.316;2023-03-20T07:14:41;98455.69;;;11.48;100.00
2785;BME280;57944;48.722;9.316;2023-03-20T07:17:16;98455.59;;;11.91;100.00
2785;BME280;57944;48.722;9.316;2023-03-20T07:19:46;98455.72;;;12.17;100.00
2785;BME280;57944;48.722;9.316;2023-03-20T07:22:21;98451.31;;;12.52;100.00
2785;BME280;57944;48.722;9.316;2023-03-20T07:25:02;98459.03;;;12.72;100.00
2785;BME280;57944;48.722;9.316;2023-03-20T07:27:32;98464.56;;;12.69;100.00
2785;BME280;57944;48.722;9.316;2023-03-20T07:30:05;98470.94;;;12.39;100.00
2785;BME280;57944;48.722;9.316;2023-03-20T07:32:36;98472.72;;;12.38;100.00
2785;BME280;57944;48.722;9.316;2023-03-20T07:35:08;98474.09;;;12.41;100.00
2785;BME280;57944;48.722;9.316;2023-03-20T07:37:43;98475.91;;;12.47;100.00
2785;BME280;57944;48.722;9.316;2023-03-20T07:40:14;98479.69;;;12.16;100.00
2785;BME280;57944;48.722;9.316;2023-03-20T07:42:49;98481.16;;;11.97;100.00
2785;BME280;57944;48.722;9.316;2023-03-20T07:45:42;98482.13;;;11.90;100.00
2785;BME280;57944;48.722;9.316;2023-03-20T07:48:12;98470.72;;;11.64;100.00
2785;BME280;57944;48.722;9.316;2023-03-20T07:50:43;98464.66;;;11.93;100.00
2785;BME280;57944;48.722;9.316;2023-03-20T07:53:16;98466.44;;;12.41;100.00
2785;BME280;57944;48.722;9.316;2023-03-20T07:55:47;98471.34;;;12.36;100.00
2785;BME280;57944;48.722;9.316;2023-03-20T07:58:17;98466.16;;;12.70;100.00
2785;BME280;57944;48.722;9.316;2023-03-20T08:00:47;98472.50;;;13.08;100.00
2785;BME280;57944;48.722;9.316;2023-03-20T08:03:17;98465.44;;;13.30;100.00
2785;BME280;57944;48.722;9.316;2023-03-20T08:05:47;98455.56;;;13.53;100.00
2785;BME280;57944;48.722;9.316;2023-03-20T08:08:20;98455.34;;;13.75;100.00
2785;BME280;57944;48.722;9.316;2023-03-20T08:10:53;98465.78;;;13.86;100.00
2785;BME280;57944;48.722;9.316;2023-03-20T08:13:24;98466.97;;;13.84;100.00
2785;BME280;57944;48.722;9.316;2023-03-20T08:15:54;98465.16;;;14.49;99.04
2785;BME280;57944;48.722;9.316;2023-03-20T08:18:24;98463.63;;;15.12;89.10
2785;BME280;57944;48.722;9.316;2023-03-20T08:20:54;98468.16;;;15.85;83.97
2785;BME280;57944;48.722;9.316;2023-03-20T08:23:27;98469.22;;;15.96;75.97
2785;BME280;57944;48.722;9.316;2023-03-20T08:25:57;98462.50;;;16.31;76.45
2785;BME280;57944;48.722;9.316;2023-03-20T08:28:28;98466.59;;;16.51;74.38
2785;BME280;57944;48.722;9.316;2023-03-20T08:31:13;98473.78;;;16.30;73.08
2785;BME280;57944;48.722;9.316;2023-03-20T08:33:45;98473.78;;;16.12;76.80
2785;BME280;57944;48.722;9.316;2023-03-20T08:36:15;98472.66;;;16.08;71.52
2785;BME280;57944;48.722;9.316;2023-03-20T08:38:49;98463.16;;;15.22;77.52
2785;BME280;57944;48.722;9.316;2023-03-20T08:41:19;98463.13;;;14.71;81.22
2785;BME280;57944;48.722;9.316;2023-03-20T08:43:49;98467.56;;;14.44;80.94
2785;BME280;57944;48.722;9.316;2023-03-20T08:46:19;98465.34;;;14.48;87.64
2785;BME280;57944;48.722;9.316;2023-03-20T08:48:50;98466.88;;;14.69;78.00
2785;BME280;57944;48.722;9.316;2023-03-20T08:51:20;98464.78;;;14.84;82.00
2785;BME280;57944;48.722;9.316;2023-03-20T08:53:53;98474.22;;;15.22;79.66
2785;BME280;57944;48.722;9.316;2023-03-20T08:56:23;98471.06;;;15.20;75.47
2785;BME280;57944;48.722;9.316;2023-03-20T08:58:53;98476.63;;;15.17;77.55
2785;BME280;57944;48.722;9.316;2023-03-20T09:01:23;98463.53;;;15.25;75.95
2785;BME280;57944;48.722;9.316;2023-03-20T09:04:13;98467.19;;;15.11;76.51
2785;BME280;57944;48.722;9.316;2023-03-20T09:06:43;98466.44;;;15.04;75.71
2785;BME280;57944;48.722;9.316;2023-03-20T09:09:16;98456.63;;;14.62;75.75
2785;BME280;57944;48.722;9.316;2023-03-20T09:11:47;98455.47;;;14.13;80.94
2785;BME280;57944;48.722;9.316;2023-03-20T09:14:18;98459.81;;;14.96;75.32
2785;BME280;57944;48.722;9.316;2023-03-20T09:16:48;98461.50;;;14.77;73.11
2785;BME280;57944;48.722;9.316;2023-03-20T09:19:19;98468.25;;;15.28;69.66
2785;BME280;57944;48.722;9.316;2023-03-20T09:21:49;98459.50;;;14.79;73.58
2785;BME280;57944;48.722;9.316;2023-03-20T09:24:21;98462.72;;;14.68;74.89
2785;BME280;57944;48.722;9.316;2023-03-20T09:26:52;98465.13;;;14.63;73.87
2785;BME280;57944;48.722;9.316;2023-03-20T09:29:22;98473.91;;;15.12;73.15
2785;BME280;57944;48.722;9.316;2023-03-20T09:31:52;98475.25;;;16.08;66.83
2785;BME280;57944;48.722;9.316;2023-03-20T09:34:22;98472.31;;;16.53;60.58
2785;BME280;57944;48.722;9.316;2023-03-20T09:36:53;98472.28;;;16.04;63.55
2785;BME280;57944;48.722;9.316;2023-03-20T09:39:26;98476.28;;;15.57;65.03
2785;BME280;57944;48.722;9.316;2023-03-20T09:41:59;98467.09;;;15.74;64.30
2785;BME280;57944;48.722;9.316;2023-03-20T09:44:42;98461.09;;;15.55;63.77
2785;BME280;57944;48.722;9.316;2023-03-20T09:47:19;98469.22;;;16.14;62.08
2785;BME280;57944;48.722;9.316;2023-03-20T09:50:03;98467.78;;;16.37;61.40
2785;BME280;57944;48.722;9.316;2023-03-20T09:52:42;98469.66;;;16.90;56.80
2785;BME280;57944;48.722;9.316;2023-03-20T09:55:20;98467.44;;;16.63;57.04
2785;BME280;57944;48.722;9.316;2023-03-20T09:57:54;98467.66;;;16.92;54.85
2785;BME280;57944;48.722;9.316;2023-03-20T10:00:28;98470.72;;;16.03;59.43
2785;BME280;57944;48.722;9.316;2023-03-20T10:03:03;98456.47;;;16.38;57.12
2785;BME280;57944;48.722;9.316;2023-03-20T10:05:36;98461.25;;;16.83;54.16
2785;BME280;57944;48.722;9.316;2023-03-20T10:08:11;98464.78;;;17.24;52.87
2785;BME280;57944;48.722;9.316;2023-03-20T10:10:49;98463.00;;;17.59;52.38
2785;BME280;57944;48.722;9.316;2023-03-20T10:13:40;98457.50;;;17.91;51.52
2785;BME280;57944;48.722;9.316;2023-03-20T10:16:21;98465.59;;;16.82;54.50
2785;BME280;57944;48.722;9.316;2023-03-20T10:18:59;98465.38;;;16.53;55.67
2785;BME280;57944;48.722;9.316;2023-03-20T10:21:38;98460.94;;;16.30;57.87
2785;BME280;57944;48.722;9.316;2023-03-20T10:24:16;98467.69;;;16.73;55.30
2785;BME280;57944;48.722;9.316;2023-03-20T10:26:52;98463.50;;;16.30;55.21
2785;BME280;57944;48.722;9.316;2023-03-20T10:29:31;98471.28;;;15.87;55.46
2785;BME280;57944;48.722;9.316;2023-03-20T10:32:07;98468.75;;;16.05;55.62
2785;BME280;57944;48.722;9.316;2023-03-20T10:34:52;98458.16;;;15.95;56.79
2785;BME280;57944;48.722;9.316;2023-03-20T10:37:33;98471.38;;;16.17;55.89
2785;BME280;57944;48.722;9.316;2023-03-20T10:40:19;98478.66;;;15.83;56.66
2785;BME280;57944;48.722;9.316;2023-03-20T10:42:59;98470.44;;;15.00;60.22
2785;BME280;57944;48.722;9.316;2023-03-20T10:45:33;98475.88;;;15.10;60.72
2785;BME280;57944;48.722;9.316;2023-03-20T10:48:12;98462.38;;;14.51;63.63
2785;BME280;57944;48.722;9.316;2023-03-20T10:50:47;98468.72;;;14.55;65.21
2785;BME280;57944;48.722;9.316;2023-03-20T10:53:27;98464.38;;;15.19;60.75
2785;BME280;57944;48.722;9.316;2023-03-20T10:56:02;98465.00;;;15.14;59.91
2785;BME280;57944;48.722;9.316;2023-03-20T10:58:38;98456.88;;;15.17;59.81
2785;BME280;57944;48.722;9.316;2023-03-20T11:01:09;98452.25;;;15.26;58.44
2785;BME280;57944;48.722;9.316;2023-03-20T11:03:39;98455.13;;;15.36;58.88
2785;BME280;57944;48.722;9.316;2023-03-20T11:06:16;98450.84;;;15.74;56.91
2785;BME280;57944;48.722;9.316;2023-03-20T11:08:49;98457.44;;;16.06;55.25
2785;BME280;57944;48.722;9.316;2023-03-20T11:11:24;98454.59;;;15.78;56.98
2785;BME280;57944;48.722;9.316;2023-03-20T11:14:08;98455.41;;;15.03;58.81
2785;BME280;57944;48.722;9.316;2023-03-20T11:16:39;98456.88;;;15.17;59.34
2785;BME280;57944;48.722;9.316;2023-03-20T11:19:10;98456.75;;;15.06;59.91
2785;BME280;57944;48.722;9.316;2023-03-20T11:21:45;98452.81;;;14.78;59.66
2785;BME280;57944;48.722;9.316;2023-03-20T11:24:28;98453.81;;;14.70;61.78
2785;BME280;57944;48.722;9.316;2023-03-20T11:27:08;98451.13;;;14.59;63.14
2785;BME280;57944;48.722;9.316;2023-03-20T11:29:42;98450.91;;;14.67;63.39
2785;BME280;57944;48.722;9.316;2023-03-20T11:32:24;98448.78;;;14.50;62.46
2785;BME280;57944;48.722;9.316;2023-03-20T11:34:56;98450.59;;;14.82;60.27
2785;BME280;57944;48.722;9.316;2023-03-20T11:37:43;98452.38;;;15.38;58.67
2785;BME280;57944;48.722;9.316;2023-03-20T11:40:17;98452.13;;;15.21;57.83
2785;BME280;57944;48.722;9.316;2023-03-20T11:42:52;98450.13;;;14.60;59.45
2785;BME280;57944;48.722;9.316;2023-03-20T11:45:25;98446.94;;;14.19;63.48
2785;BME280;57944;48.722;9.316;2023-03-20T11:47:56;98449.06;;;13.71;73.62
2785;BME280;57944;48.722;9.316;2023-03-20T11:50:31;98445.75;;;13.44;79.44
2785;BME280;57944;48.722;9.316;2023-03-20T11:53:19;98444.78;;;13.38;82.29
2785;BME280;57944;48.722;9.316;2023-03-20T11:56:06;98447.06;;;13.86;80.85
2785;BME280;57944;48.722;9.316;2023-03-20T11:58:47;98453.13;;;13.98;77.80
2785;BME280;57944;48.722;9.316;2023-03-20T12:01:22;98450.00;;;13.96;78.59
2785;BME280;57944;48.722;9.316;2023-03-20T12:04:06;98444.56;;;13.39;82.06
2785;BME280;57944;48.722;9.316;2023-03-20T12:06:43;98446.28;;;12.86;88.09
2785;BME280;57944;48.722;9.316;2023-03-20T12:09:24;98443.25;;;12.49;92.86
2785;BME280;57944;48.722;9.316;2023-03-20T12:11:58;98445.47;;;12.65;93.80
2785;BME280;57944;48.722;9.316;2023-03-20T12:14:36;98445.31;;;12.93;90.13
2785;BME280;57944;48.722;9.316;2023-03-20T12:17:36;98440.59;;;13.10;88.38
2785;BME280;57944;48.722;9.316;2023-03-20T12:20:29;98436.69;;;13.01;90.08
2785;BME280;57944;48.722;9.316;2023-03-20T12:23:10;98438.03;;;13.63;86.17
2785;BME280;57944;48.722;9.316;2023-03-20T12:25:46;98440.81;;;14.27;78.43
2785;BME280;57944;48.722;9.316;2023-03-20T12:28:23;98441.19;;;15.01;73.12
2785;BME280;57944;48.722;9.316;2023-03-20T12:31:03;98440.06;;;14.96;73.21
2785;BME280;57944;48.722;9.316;2023-03-20T12:33:42;98432.59;;;15.82;68.40
2785;BME280;57944;48.722;9.316;2023-03-20T12:36:15;98421.66;;;16.65;61.90
2785;BME280;57944;48.722;9.316;2023-03-20T12:38:50;98430.03;;;17.85;56.26
2785;BME280;57944;48.722;9.316;2023-03-20T12:41:24;98434.22;;;17.51;56.58
2785;BME280;57944;48.722;9.316;2023-03-20T12:44:09;98419.88;;;17.31;56.69
2785;BME280;57944;48.722;9.316;2023-03-20T12:46:47;98419.50;;;18.56;53.70
2785;BME280;57944;48.722;9.316;2023-03-20T12:49:30;98426.66;;;19.16;51.67
2785;BME280;57944;48.722;9.316;2023-03-20T12:52:10;98421.06;;;19.41;49.98
2785;BME280;57944;48.722;9.316;2023-03-20T12:54:59;98419.84;;;18.76;51.89
2785;BME280;57944;48.722;9.316;2023-03-20T12:57:38;98411.69;;;17.46;53.40
2785;BME280;57944;48.722;9.316;2023-03-20T13:00:18;98405.97;;;17.68;52.64
2785;BME280;57944;48.722;9.316;2023-03-20T13:03:03;98397.19;;;18.21;51.27
2785;BME280;57944;48.722;9.316;2023-03-20T13:05:42;98396.78;;;17.60;52.40
2785;BME280;57944;48.722;9.316;2023-03-20T13:11:14;98396.72;;;18.24;49.34
2785;BME280;57944;48.722;9.316;2023-03-20T13:13:48;98398.13;;;17.86;50.80
2785;BME280;57944;48.722;9.316;2023-03-20T13:16:29;98391.06;;;17.70;51.30
2785;BME280;57944;48.722;9.316;2023-03-20T13:19:06;98387.28;;;17.37;52.24
2785;BME280;57944;48.722;9.316;2023-03-20T13:21:50;98376.53;;;16.93;53.57
2785;BME280;57944;48.722;9.316;2023-03-20T13:24:35;98381.22;;;17.43;52.13
2785;BME280;57944;48.722;9.316;2023-03-20T13:27:15;98377.19;;;17.59;51.83
2785;BME280;57944;48.722;9.316;2023-03-20T13:29:51;98386.06;;;16.92;53.68
2785;BME280;57944;48.722;9.316;2023-03-20T13:32:32;98374.44;;;17.89;51.51
2785;BME280;57944;48.722;9.316;2023-03-20T13:35:18;98375.75;;;18.66;49.95
2785;BME280;57944;48.722;9.316;2023-03-20T13:37:54;98376.03;;;18.36;50.54
2785;BME280;57944;48.722;9.316;2023-03-20T13:40:34;98356.16;;;17.27;52.38
2785;BME280;57944;48.722;9.316;2023-03-20T13:43:47;98357.19;;;17.78;51.87
2785;BME280;57944;48.722;9.316;2023-03-20T13:46:23;98355.50;;;17.19;52.22
2785;BME280;57944;48.722;9.316;2023-03-20T13:48:59;98356.69;;;17.40;52.02
2785;BME280;57944;48.722;9.316;2023-03-20T13:51:36;98351.41;;;18.28;49.66
2785;BME280;57944;48.722;9.316;2023-03-20T13:54:32;98363.38;;;17.65;50.47
2785;BME280;57944;48.722;9.316;2023-03-20T13:57:11;98348.97;;;17.29;51.93
2785;BME280;57944;48.722;9.316;2023-03-20T13:59:59;98344.63;;;17.17;52.35
2785;BME280;57944;48.722;9.316;2023-03-20T14:02:44;98346.28;;;17.24;52.47
2785;BME280;57944;48.722;9.316;2023-03-20T14:05:21;98342.06;;;17.17;52.61
2785;BME280;57944;48.722;9.316;2023-03-20T14:07:55;98341.94;;;16.89;53.46
2785;BME280;57944;48.722;9.316;2023-03-20T14:10:46;98334.75;;;16.79;53.59